Time;durP1;ratioP1;P1;durP2;ratioP2;P2;SDS_P1;SDS_P2;PMS_P1;PMS_P2;Temp;Humidity;BMP_temperature;BMP_pressure;BME280_temperature;BME280_humidity;BME280_pressure;Samples;Min_cycle;Max_cycle;Signal;HPM_P1;HPM_P2
2023/06/05 00:00:30;;;;;;;11.00;6.30;;;;;;;17.87;44.61;96250.91;4986716;28;20458;-69
2023/06/05 00:02:56;;;;;;;8.70;6.23;;;;;;;17.91;44.26;96254.22;4986342;28;20180;-69
2023/06/05 00:05:25;;;;;;;6.73;5.83;;;;;;;17.88;44.14;96257.94;4986291;28;20200;-70
2023/06/05 00:07:51;;;;;;;6.60;5.80;;;;;;;17.83;44.09;96254.75;4987189;28;20227;-70
2023/06/05 00:10:16;;;;;;;42.67;9.93;;;;;;;17.76;44.16;96251.72;4988790;28;20544;-70
2023/06/05 00:12:42;;;;;;;9.70;6.43;;;;;;;17.81;44.35;96245.22;4990271;28;20172;-69
2023/06/05 00:15:07;;;;;;;7.50;5.80;;;;;;;17.91;43.73;96255.03;4989938;28;20263;-69
2023/06/05 00:17:33;;;;;;;7.20;5.57;;;;;;;17.86;43.94;96251.03;4990257;28;20181;-70
2023/06/05 00:19:59;;;;;;;7.07;5.50;;;;;;;17.81;44.05;96253.19;4990319;28;20747;-70
2023/06/05 00:22:28;;;;;;;15.83;6.33;;;;;;;17.67;44.44;96251.53;4990319;28;20901;-69
2023/06/05 00:24:54;;;;;;;28.40;8.17;;;;;;;17.81;44.10;96250.53;4991125;28;20419;-70
2023/06/05 00:27:19;;;;;;;5.50;5.00;;;;;;;17.73;43.98;96251.09;4991155;28;21353;-70
2023/06/05 00:29:45;;;;;;;9.17;5.30;;;;;;;17.72;44.17;96244.09;4991498;28;20204;-70
2023/06/05 00:32:10;;;;;;;16.83;5.93;;;;;;;17.68;44.10;96247.94;4991498;28;20263;-70
2023/06/05 00:34:36;;;;;;;10.50;6.83;;;;;;;17.72;43.81;96239.63;4990801;28;20176;-70
2023/06/05 00:37:01;;;;;;;10.90;6.20;;;;;;;17.76;43.86;96242.88;4989979;28;20208;-69
2023/06/05 00:39:26;;;;;;;6.63;5.63;;;;;;;17.80;43.30;96238.22;4989733;28;20188;-68
2023/06/05 00:41:52;;;;;;;6.80;5.57;;;;;;;17.68;43.33;96247.94;4990016;28;20176;-69
2023/06/05 00:44:18;;;;;;;11.50;5.47;;;;;;;17.77;43.23;96239.28;4990078;28;20200;-69
2023/06/05 00:46:45;;;;;;;12.70;6.60;;;;;;;17.71;43.48;96235.25;4990035;28;20657;-69
2023/06/05 00:49:11;;;;;;;22.23;6.10;;;;;;;17.67;43.41;96238.25;4990312;28;21252;-70
2023/06/05 00:51:38;;;;;;;17.63;6.40;;;;;;;17.64;43.49;96231.38;4990042;28;20416;-69
2023/06/05 00:54:06;;;;;;;10.33;6.13;;;;;;;17.60;43.96;96231.72;4989317;28;20408;-69
2023/06/05 00:56:35;;;;;;;13.03;5.97;;;;;;;17.62;43.42;96235.09;4990008;28;21240;-69
2023/06/05 00:59:01;;;;;;;6.97;5.40;;;;;;;17.53;43.37;96232.19;4989863;28;20428;-70
2023/06/05 01:01:28;;;;;;;7.00;5.70;;;;;;;17.54;42.91;96235.69;4989883;28;20418;-70
2023/06/05 01:03:57;;;;;;;8.40;5.73;;;;;;;17.46;42.97;96233.63;4989469;28;20177;-70
2023/06/05 01:06:26;;;;;;;6.97;5.10;;;;;;;17.46;43.30;96232.78;4989913;28;20443;-69
2023/06/05 01:08:53;;;;;;;10.10;6.23;;;;;;;17.62;43.05;96243.06;4989565;28;20437;-69
2023/06/05 01:11:44;;;;;;;31.10;7.30;;;;;;;17.45;42.97;96233.72;4989418;28;20422;-69
2023/06/05 01:14:27;;;;;;;6.33;4.93;;;;;;;17.53;42.68;96234.00;4989062;28;20929;-70
2023/06/05 01:16:54;;;;;;;6.30;5.17;;;;;;;17.63;42.09;96231.50;4989369;28;20441;-70
2023/06/05 01:19:24;;;;;;;5.70;5.13;;;;;;;17.51;42.58;96228.81;4988510;28;20464;-68
2023/06/05 01:21:50;;;;;;;13.10;4.17;;;;;;;17.40;42.61;96231.41;4988934;28;20440;-69
2023/06/05 01:24:15;;;;;;;7.50;5.10;;;;;;;17.37;42.14;96226.34;4988862;28;20408;-69
2023/06/05 01:27:00;;;;;;;5.70;4.43;;;;;;;17.45;41.67;96228.41;4989041;28;20782;-69
2023/06/05 01:29:55;;;;;;;6.93;5.23;;;;;;;17.47;42.00;96230.00;4989082;28;20752;-70
2023/06/05 01:32:36;;;;;;;25.67;6.60;;;;;;;17.52;41.68;96227.00;4987665;28;21027;-70
2023/06/05 01:35:05;;;;;;;15.27;5.13;;;;;;;17.32;41.79;96233.78;4988603;28;20439;-70
2023/06/05 01:37:36;;;;;;;17.23;5.40;;;;;;;17.32;41.77;96234.63;4988482;28;20491;-69
2023/06/05 01:40:02;;;;;;;7.33;4.47;;;;;;;17.29;41.72;96226.03;4988853;28;20435;-70
2023/06/05 01:42:28;;;;;;;15.43;4.97;;;;;;;17.19;41.31;96230.34;4989258;28;20925;-68
2023/06/05 01:44:54;;;;;;;5.90;4.00;;;;;;;17.12;41.39;96230.75;4988523;28;20431;-70
2023/06/05 01:47:21;;;;;;;4.70;3.90;;;;;;;17.11;41.37;96229.09;4988847;28;20914;-70
2023/06/05 01:49:46;;;;;;;5.33;4.10;;;;;;;17.22;41.11;96230.09;4988190;28;20288;-69
2023/06/05 01:52:12;;;;;;;10.20;4.60;;;;;;;17.25;41.43;96225.44;4988362;28;20511;-70
2023/06/05 01:54:38;;;;;;;11.83;4.93;;;;;;;17.19;40.44;96225.03;4988146;28;20663;-70
2023/06/05 01:57:04;;;;;;;9.00;4.77;;;;;;;17.21;41.34;96226.59;4988242;28;20177;-70
2023/06/05 01:59:29;;;;;;;6.03;4.43;;;;;;;17.13;41.08;96226.34;4987931;28;20428;-69
2023/06/05 02:01:55;;;;;;;4.27;3.63;;;;;;;17.11;40.65;96222.94;4988182;28;20187;-70
2023/06/05 02:04:21;;;;;;;6.30;3.70;;;;;;;17.20;40.95;96222.28;4987856;28;20169;-70
2023/06/05 02:06:49;;;;;;;4.73;4.10;;;;;;;17.32;40.00;96224.03;4988134;28;20197;-70
2023/06/05 02:09:14;;;;;;;15.43;5.20;;;;;;;17.15;40.85;96221.78;4987955;28;20794;-70
2023/06/05 02:11:45;;;;;;;17.43;6.20;;;;;;;17.25;40.63;96221.94;4988328;28;20470;-68
2023/06/05 02:14:15;;;;;;;15.63;5.20;;;;;;;17.12;40.97;96222.81;4987713;28;20172;-70
2023/06/05 02:16:41;;;;;;;8.63;5.70;;;;;;;17.11;40.87;96222.94;4987985;28;20412;-69
2023/06/05 02:19:07;;;;;;;4.80;3.50;;;;;;;17.16;41.03;96220.78;4987757;28;20438;-69
2023/06/05 02:21:33;;;;;;;12.23;5.10;;;;;;;17.24;40.65;96229.03;4987650;28;20416;-69
2023/06/05 02:24:04;;;;;;;13.37;6.03;;;;;;;17.24;40.55;96220.22;4987503;28;20193;-69
2023/06/05 02:26:30;;;;;;;13.97;5.53;;;;;;;17.27;40.90;96222.69;4990589;28;20256;-70
2023/06/05 02:28:57;;;;;;;25.67;5.33;;;;;;;17.09;40.94;96223.03;4987544;28;20574;-70
2023/06/05 02:31:28;;;;;;;31.70;7.53;;;;;;;17.11;40.92;96220.28;4987682;28;20267;-70
2023/06/05 02:33:55;;;;;;;15.53;5.00;;;;;;;17.02;41.50;96219.16;4987395;28;20780;-70
2023/06/05 02:36:22;;;;;;;5.70;4.30;;;;;;;17.00;41.42;96221.06;4987664;28;20447;-70
2023/06/05 02:38:51;;;;;;;16.90;5.10;;;;;;;17.03;41.59;96223.50;4987387;28;20440;-70
2023/06/05 02:41:17;;;;;;;39.73;7.90;;;;;;;17.01;41.80;96214.81;4987678;28;20750;-70
2023/06/05 02:43:44;;;;;;;20.67;6.00;;;;;;;17.03;41.50;96214.69;4987305;28;20408;-70
2023/06/05 02:46:10;;;;;;;46.37;8.63;;;;;;;17.07;41.60;96222.31;4987838;28;20654;-70
2023/06/05 02:48:36;;;;;;;26.53;7.30;;;;;;;17.16;41.15;96222.63;4987851;28;20917;-68
2023/06/05 02:51:01;;;;;;;32.43;9.07;;;;;;;17.00;41.28;96214.91;4987476;28;20529;-69
2023/06/05 02:53:26;;;;;;;37.63;9.23;;;;;;;16.95;42.23;96217.06;4987269;28;20173;-70
2023/06/05 02:55:53;;;;;;;57.93;9.23;;;;;;;17.09;41.72;96220.41;4987364;28;20683;-70
2023/06/05 02:58:19;;;;;;;15.03;5.30;;;;;;;16.72;41.87;96228.34;4987178;28;20870;-70
2023/06/05 03:00:45;;;;;;;36.13;8.30;;;;;;;16.81;42.25;96221.53;4987531;28;20525;-70
2023/06/05 03:03:12;;;;;;;12.37;4.83;;;;;;;16.83;42.40;96224.94;4986917;28;20849;-70
2023/06/05 03:05:38;;;;;;;35.67;6.87;;;;;;;16.95;42.27;96225.00;4986613;28;20420;-70
2023/06/05 03:08:03;;;;;;;26.03;6.33;;;;;;;16.84;43.00;96228.41;4986994;28;20447;-70
2023/06/05 03:10:29;;;;;;;36.60;6.80;;;;;;;17.00;42.49;96226.34;4986960;28;20287;-70
2023/06/05 03:12:55;;;;;;;40.67;8.93;;;;;;;16.88;42.94;96224.59;4986880;28;20180;-70
2023/06/05 03:15:20;;;;;;;23.07;6.87;;;;;;;16.89;42.66;96223.63;4986694;28;20635;-69
2023/06/05 03:17:46;;;;;;;97.60;13.40;;;;;;;16.89;42.73;96228.94;4986937;28;20176;-70
2023/06/05 03:20:12;;;;;;;53.77;8.83;;;;;;;16.86;43.26;96221.22;4987011;28;20165;-70
2023/06/05 03:22:38;;;;;;;20.77;5.60;;;;;;;16.84;42.97;96231.94;4987041;28;20184;-72
2023/06/05 03:25:04;;;;;;;40.57;7.60;;;;;;;16.95;42.44;96223.19;4989273;28;20951;-70
2023/06/05 03:27:30;;;;;;;29.60;6.90;;;;;;;16.89;43.37;96226.28;4989266;28;20589;-70
2023/06/05 03:29:56;;;;;;;27.43;5.97;;;;;;;16.99;42.94;96222.03;4988001;28;20479;-70
2023/06/05 03:32:21;;;;;;;22.67;6.30;;;;;;;16.83;43.53;96229.38;4987943;28;20252;-69
2023/06/05 03:34:48;;;;;;;11.43;5.03;;;;;;;16.78;43.55;96232.34;4986820;28;20495;-70
2023/06/05 03:37:14;;;;;;;10.37;5.33;;;;;;;16.82;43.64;96227.69;4986478;28;20924;-70
2023/06/05 03:39:40;;;;;;;8.07;4.73;;;;;;;16.78;43.82;96231.50;4986490;28;20442;-70
2023/06/05 03:42:06;;;;;;;15.67;5.60;;;;;;;16.80;43.72;96233.09;4986629;28;20506;-70
2023/06/05 03:44:32;;;;;;;32.37;7.30;;;;;;;16.73;44.07;96237.13;4986479;28;20165;-69
2023/06/05 03:46:57;;;;;;;20.47;6.37;;;;;;;16.77;44.36;96230.66;4986774;28;20984;-70
2023/06/05 03:49:25;;;;;;;28.43;6.37;;;;;;;16.79;44.28;96230.56;4986498;28;20200;-69
2023/06/05 03:51:51;;;;;;;13.30;5.37;;;;;;;16.68;44.63;96240.09;4986384;28;20184;-70
2023/06/05 03:54:17;;;;;;;16.07;5.40;;;;;;;16.68;45.00;96239.25;4986325;28;20451;-70
2023/06/05 03:56:49;;;;;;;18.00;5.60;;;;;;;16.82;44.82;96238.28;4986790;28;20414;-69
2023/06/05 03:59:22;;;;;;;68.50;11.37;;;;;;;16.85;44.74;96238.91;4986192;28;20871;-69
2023/06/05 04:01:47;;;;;;;20.47;6.20;;;;;;;17.03;44.07;96242.06;4986384;28;21032;-70
2023/06/05 04:04:13;;;;;;;52.90;9.43;;;;;;;17.14;44.36;96244.75;4986300;28;20510;-69
2023/06/05 04:06:40;;;;;;;46.47;8.40;;;;;;;17.26;43.88;96243.03;4986372;28;20529;-70
2023/06/05 04:09:10;;;;;;;18.90;5.90;;;;;;;17.31;43.70;96240.03;4986276;28;20690;-69
2023/06/05 04:11:38;;;;;;;53.50;10.50;;;;;;;17.41;43.65;96246.38;4986382;28;20408;-70
2023/06/05 04:14:03;;;;;;;10.17;5.60;;;;;;;17.55;43.40;96243.53;4985959;28;20940;-69
2023/06/05 04:16:29;;;;;;;13.20;5.40;;;;;;;17.43;43.53;96249.75;4985905;28;20415;-70
2023/06/05 04:18:55;;;;;;;15.50;5.73;;;;;;;17.56;43.93;96247.03;4986141;28;20200;-69
2023/06/05 04:21:20;;;;;;;23.53;6.20;;;;;;;17.71;43.55;96253.00;4986176;28;20173;-69
2023/06/05 04:23:45;;;;;;;58.00;9.10;;;;;;;17.80;43.67;96249.66;4986193;28;20540;-69
2023/06/05 04:26:11;;;;;;;37.57;7.53;;;;;;;17.78;43.89;96243.63;4986573;28;20180;-69
2023/06/05 04:28:36;;;;;;;45.93;10.40;;;;;;;17.82;43.81;96246.94;4986329;28;20188;-69
2023/06/05 04:31:02;;;;;;;26.13;5.90;;;;;;;17.81;43.65;96248.75;4986642;28;20219;-72
2023/06/05 04:33:27;;;;;;;18.53;6.50;;;;;;;17.97;43.46;96253.72;4986109;28;20247;-69
2023/06/05 04:35:53;;;;;;;20.70;6.17;;;;;;;18.01;43.49;96249.03;4985924;28;20168;-70
2023/06/05 04:38:20;;;;;;;39.07;7.63;;;;;;;18.23;43.09;96248.25;4986092;28;20192;-70
2023/06/05 04:40:50;;;;;;;11.63;5.87;;;;;;;18.29;43.05;96250.44;4984803;28;20168;-69
2023/06/05 04:43:15;;;;;;;8.73;5.53;;;;;;;18.24;43.08;96247.28;4985918;28;20547;-70
2023/06/05 04:45:41;;;;;;;9.47;4.93;;;;;;;18.46;42.72;96247.31;4985985;28;20420;-70
2023/06/05 04:48:07;;;;;;;26.30;6.00;;;;;;;18.58;42.47;96243.69;4986231;28;20217;-70
2023/06/05 04:50:33;;;;;;;21.23;7.13;;;;;;;18.71;42.41;96248.03;4986168;28;20272;-70
2023/06/05 04:52:59;;;;;;;39.03;9.80;;;;;;;18.85;42.06;96254.94;4985990;28;21239;-71
2023/06/05 04:55:24;;;;;;;14.50;6.37;;;;;;;18.85;42.35;96257.59;4987634;28;20470;-70
2023/06/05 04:57:51;;;;;;;16.53;7.40;;;;;;;18.72;42.75;96247.06;4988325;28;20290;-70
2023/06/05 05:00:16;;;;;;;8.10;4.90;;;;;;;18.65;42.73;96249.38;4989783;28;20228;-70
2023/06/05 05:02:42;;;;;;;15.13;5.90;;;;;;;18.90;42.33;96250.09;4989444;28;20897;-69
2023/06/05 05:05:08;;;;;;;39.80;8.53;;;;;;;19.05;42.09;96246.22;4988979;28;20173;-69
2023/06/05 05:07:35;;;;;;;9.97;5.07;;;;;;;19.22;41.63;96237.72;4989350;28;20208;-69
2023/06/05 05:10:01;;;;;;;8.73;5.57;;;;;;;19.34;41.71;96251.00;4989352;28;20456;-70
2023/06/05 05:12:26;;;;;;;17.90;7.10;;;;;;;19.32;41.67;96244.97;4989418;28;20400;-69
2023/06/05 05:14:52;;;;;;;7.67;4.50;;;;;;;19.20;42.05;96236.16;4988982;28;20169;-70
2023/06/05 05:17:19;;;;;;;13.00;5.10;;;;;;;19.38;42.04;96241.81;4989219;28;20169;-69
2023/06/05 05:19:45;;;;;;;10.10;5.00;;;;;;;19.58;41.44;96238.38;4989408;28;20219;-70
2023/06/05 05:22:10;;;;;;;12.13;6.37;;;;;;;19.61;41.27;96235.44;4989334;28;20444;-70
2023/06/05 05:24:36;;;;;;;8.23;5.33;;;;;;;19.31;42.14;96244.13;4989149;28;20180;-69
2023/06/05 05:27:01;;;;;;;15.90;6.23;;;;;;;19.61;41.88;96235.44;4989284;28;20171;-70
2023/06/05 05:29:27;;;;;;;15.50;6.20;;;;;;;19.62;41.61;96236.28;4989128;28;20201;-69
2023/06/05 05:31:52;;;;;;;21.73;6.37;;;;;;;19.97;41.10;96238.69;4989489;28;20177;-71
2023/06/05 05:34:18;;;;;;;12.30;5.27;;;;;;;20.09;40.77;96237.66;4987139;28;20280;-69
2023/06/05 05:36:44;;;;;;;8.10;4.90;;;;;;;19.52;41.59;96249.50;4989100;28;20201;-70
2023/06/05 05:39:10;;;;;;;21.20;6.77;;;;;;;19.50;41.64;96238.13;4987957;28;20196;-72
2023/06/05 05:41:35;;;;;;;11.30;5.63;;;;;;;19.63;41.70;96241.47;4988390;28;20168;-70
2023/06/05 05:44:01;;;;;;;11.20;5.43;;;;;;;19.57;41.15;96241.13;4984946;28;20431;-71
2023/06/05 05:46:26;;;;;;;6.00;5.40;;;;;;;19.44;41.73;96244.81;4984792;28;20284;-71
2023/06/05 05:48:51;;;;;;;9.03;5.90;;;;;;;19.53;41.34;96237.88;4988546;28;20250;-71
2023/06/05 05:51:17;;;;;;;15.90;5.90;;;;;;;20.07;40.44;96242.25;4986859;28;20294;-70
2023/06/05 05:53:42;;;;;;;10.20;5.63;;;;;;;19.88;40.47;96250.09;4987665;28;20177;-69
2023/06/05 05:56:08;;;;;;;8.67;5.53;;;;;;;20.06;40.33;96250.41;4988291;28;20228;-71
2023/06/05 05:58:33;;;;;;;8.00;5.10;;;;;;;20.28;39.75;96244.06;4988047;28;20184;-71
2023/06/05 06:01:02;;;;;;;8.07;5.57;;;;;;;20.38;39.86;96244.97;4986983;28;20177;-71
2023/06/05 06:03:27;;;;;;;8.57;5.10;;;;;;;20.54;39.34;96251.66;4988090;28;20176;-72
2023/06/05 06:05:53;;;;;;;7.23;4.67;;;;;;;20.38;39.47;96250.31;4980966;28;20504;-69
2023/06/05 06:08:18;;;;;;;61.33;9.53;;;;;;;20.15;40.21;96257.63;4981862;28;20856;-71
2023/06/05 06:10:45;;;;;;;8.73;5.43;;;;;;;19.80;40.44;96257.91;4985387;28;20200;-71
2023/06/05 06:13:11;;;;;;;15.87;5.33;;;;;;;19.98;40.91;96250.19;4985814;28;20180;-71
2023/06/05 06:15:38;;;;;;;24.80;6.70;;;;;;;20.24;40.36;96247.97;4982722;28;20428;-72
2023/06/05 06:18:06;;;;;;;12.57;5.17;;;;;;;20.54;40.08;96243.66;4988364;28;20203;-71
2023/06/05 06:20:33;;;;;;;8.57;5.20;;;;;;;20.52;39.80;96249.94;4985468;28;20432;-70
2023/06/05 06:22:59;;;;;;;11.73;5.27;;;;;;;20.22;40.53;96247.25;4985295;28;20454;-69
2023/06/05 06:25:28;;;;;;;8.80;5.77;;;;;;;19.70;42.26;96249.84;4981089;28;20436;-71
2023/06/05 06:27:55;;;;;;;8.50;6.27;;;;;;;20.11;41.81;96248.19;4987641;28;20320;-72
2023/06/05 06:30:21;;;;;;;5.73;5.03;;;;;;;20.44;41.32;96247.13;4987809;28;20454;-70
2023/06/05 06:32:47;;;;;;;10.00;6.93;;;;;;;20.31;41.96;96249.13;4988586;28;20412;-72
2023/06/05 06:35:15;;;;;;;10.40;6.20;;;;;;;20.67;41.87;96255.84;4983668;28;20196;-72
2023/06/05 06:37:41;;;;;;;7.90;6.50;;;;;;;20.86;41.31;96248.91;4979773;28;20181;-72
2023/06/05 06:40:10;;;;;;;7.23;6.00;;;;;;;20.78;41.48;96252.22;4983977;28;20431;-72
2023/06/05 06:42:36;;;;;;;7.47;6.60;;;;;;;20.76;41.64;96258.66;4982465;28;20483;-72
2023/06/05 06:45:03;;;;;;;8.70;5.97;;;;;;;21.04;41.52;96260.59;4986522;28;20432;-72
2023/06/05 06:47:29;;;;;;;11.63;7.17;;;;;;;21.37;40.82;96250.56;4979031;28;20424;-72
2023/06/05 06:49:54;;;;;;;7.73;6.93;;;;;;;21.35;40.82;96252.53;4981222;28;20463;-70
2023/06/05 06:52:21;;;;;;;13.20;7.10;;;;;;;21.30;41.27;96255.59;4978836;28;20878;-71
2023/06/05 06:54:46;;;;;;;8.83;6.07;;;;;;;21.14;41.86;96258.81;4987264;28;20176;-71
2023/06/05 06:57:12;;;;;;;31.67;8.17;;;;;;;21.73;41.07;96256.25;4978245;28;20435;-71
2023/06/05 06:59:40;;;;;;;7.57;6.20;;;;;;;20.67;42.80;96261.16;4980214;28;20196;-73
2023/06/05 07:02:16;;;;;;;9.50;6.77;;;;;;;21.01;42.38;96257.38;4984684;28;20181;-73
2023/06/05 07:04:43;;;;;;;10.17;6.97;;;;;;;21.11;42.38;96259.06;4987304;28;20419;-72
2023/06/05 07:07:10;;;;;;;9.73;7.70;;;;;;;20.48;43.78;96256.56;4986678;28;20848;-70
2023/06/05 07:09:36;;;;;;;12.70;7.70;;;;;;;20.24;45.25;96256.81;4986296;28;20579;-71
2023/06/05 07:12:04;;;;;;;16.03;7.93;;;;;;;20.39;45.26;96262.66;4983709;28;20582;-70
2023/06/05 07:14:32;;;;;;;12.50;7.70;;;;;;;20.70;44.70;96257.38;4985328;28;20264;-70
2023/06/05 07:16:59;;;;;;;7.80;7.03;;;;;;;20.90;44.36;96258.31;4984787;28;20507;-71
2023/06/05 07:19:28;;;;;;;20.23;7.90;;;;;;;21.82;42.83;96254.59;4983613;28;20498;-70
2023/06/05 07:21:58;;;;;;;11.73;7.60;;;;;;;21.50;43.29;96253.03;4991051;28;20432;-70
2023/06/05 07:24:25;;;;;;;12.30;8.23;;;;;;;21.43;43.67;96249.22;4986517;28;20412;-71
2023/06/05 07:26:52;;;;;;;12.43;6.77;;;;;;;21.53;43.24;96247.41;4993183;28;20526;-71
2023/06/05 07:29:19;;;;;;;10.67;7.63;;;;;;;21.29;43.26;96253.09;4987819;28;20435;-70
2023/06/05 07:31:44;;;;;;;9.67;7.37;;;;;;;21.53;42.48;96260.75;4988276;28;20412;-72
2023/06/05 07:34:12;;;;;;;16.60;8.07;;;;;;;21.27;43.24;96249.72;4987292;28;20454;-71
2023/06/05 07:36:38;;;;;;;8.90;6.57;;;;;;;21.63;42.74;96245.56;4990087;28;20187;-71
2023/06/05 07:39:03;;;;;;;9.10;7.20;;;;;;;21.36;43.21;96256.91;5002598;28;20439;-70
2023/06/05 07:41:28;;;;;;;12.40;6.77;;;;;;;21.41;42.82;96257.38;5002980;28;20463;-72
2023/06/05 07:43:54;;;;;;;21.53;7.23;;;;;;;22.10;41.64;96250.22;4999676;28;20212;-71
2023/06/05 07:46:19;;;;;;;7.57;6.77;;;;;;;22.36;41.06;96254.00;4987465;28;20626;-71
2023/06/05 07:48:45;;;;;;;12.07;7.63;;;;;;;21.84;41.92;96252.63;4986960;28;20789;-70
2023/06/05 07:51:10;;;;;;;8.07;7.27;;;;;;;21.98;41.80;96249.53;4985080;28;20307;-70
2023/06/05 07:53:36;;;;;;;13.93;8.07;;;;;;;21.59;42.81;96246.88;4985618;28;20260;-70
2023/06/05 07:56:01;;;;;;;8.03;7.20;;;;;;;21.75;42.50;96247.13;4986712;28;20205;-70
2023/06/05 07:58:28;;;;;;;8.50;7.03;;;;;;;22.10;42.23;96253.72;4983969;28;20211;-71
2023/06/05 08:00:53;;;;;;;10.90;7.80;;;;;;;22.28;41.52;96239.69;4986590;28;20355;-71
2023/06/05 08:03:20;;;;;;;10.83;8.40;;;;;;;21.84;42.38;96247.28;4986232;28;20511;-71
2023/06/05 08:05:49;;;;;;;14.10;8.20;;;;;;;22.11;42.16;96247.41;4986079;28;20692;-70
2023/06/05 08:08:15;;;;;;;14.63;8.20;;;;;;;22.72;41.09;96235.44;4987074;28;20442;-71
2023/06/05 08:10:41;;;;;;;17.93;8.27;;;;;;;22.93;40.71;96229.88;4987073;28;20451;-71
2023/06/05 08:13:08;;;;;;;10.43;7.27;;;;;;;22.38;41.91;96235.16;4986573;28;20604;-72
2023/06/05 08:15:33;;;;;;;10.13;7.00;;;;;;;22.57;41.29;96234.25;4985951;28;20200;-70
2023/06/05 08:17:59;;;;;;;15.60;7.57;;;;;;;22.62;41.12;96240.00;4986074;28;20452;-70
2023/06/05 08:20:24;;;;;;;14.00;8.10;;;;;;;22.63;41.07;96241.72;4986116;28;20177;-69
2023/06/05 08:22:50;;;;;;;15.97;7.70;;;;;;;22.82;41.25;96232.75;4986111;28;20532;-70
2023/06/05 08:25:15;;;;;;;7.77;6.80;;;;;;;22.95;40.63;96238.59;4986052;28;20184;-70
2023/06/05 08:27:41;;;;;;;9.93;7.20;;;;;;;23.12;40.75;96230.81;4986218;28;20255;-69
2023/06/05 08:30:07;;;;;;;8.27;7.47;;;;;;;23.32;40.13;96243.09;4989192;28;20929;-71
2023/06/05 08:32:33;;;;;;;8.97;7.97;;;;;;;22.94;40.76;96242.28;4989855;28;20224;-71
2023/06/05 08:34:58;;;;;;;8.57;7.10;;;;;;;23.07;40.94;96231.25;4989647;28;20424;-70
2023/06/05 08:37:23;;;;;;;11.10;7.43;;;;;;;23.08;40.79;96237.44;4989515;28;20169;-69
2023/06/05 08:39:49;;;;;;;8.10;7.27;;;;;;;23.27;40.27;96239.16;4989514;28;20539;-70
2023/06/05 08:42:18;;;;;;;10.60;6.83;;;;;;;22.72;41.08;96245.31;4989474;28;20177;-70
2023/06/05 08:44:47;;;;;;;11.10;7.33;;;;;;;22.45;42.32;96230.06;4989243;28;20587;-69
2023/06/05 08:47:14;;;;;;;11.57;7.17;;;;;;;22.89;41.52;96228.50;4989122;28;20426;-69
2023/06/05 08:49:41;;;;;;;13.30;6.77;;;;;;;23.17;41.06;96225.84;4989087;28;20870;-70
2023/06/05 08:52:07;;;;;;;17.60;8.10;;;;;;;23.80;39.89;96222.34;4989323;28;20418;-71
2023/06/05 08:54:38;;;;;;;11.93;8.50;;;;;;;24.04;39.47;96219.88;4988856;28;20830;-72
2023/06/05 08:57:06;;;;;;;13.67;8.07;;;;;;;23.90;38.83;96227.63;4989435;28;20407;-71
2023/06/05 08:59:32;;;;;;;7.90;7.10;;;;;;;24.36;37.66;96213.06;4989010;28;20440;-70
2023/06/05 09:01:57;;;;;;;12.27;7.47;;;;;;;23.46;39.45;96215.81;4982104;28;20439;-71
2023/06/05 09:04:29;;;;;;;8.07;7.27;;;;;;;22.91;40.61;96221.16;4975777;28;20177;-72
2023/06/05 09:06:59;;;;;;;10.10;6.60;;;;;;;23.54;39.45;96219.56;4986260;28;20201;-71
2023/06/05 09:09:25;;;;;;;10.10;7.33;;;;;;;24.10;38.21;96210.38;4981845;28;21031;-71
2023/06/05 09:12:04;;;;;;;8.93;7.00;;;;;;;24.14;37.95;96213.56;4988965;28;20468;-71
2023/06/05 09:14:31;;;;;;;7.57;6.63;;;;;;;23.85;37.86;96218.19;4988504;28;20427;-71
2023/06/05 09:16:57;;;;;;;9.53;7.00;;;;;;;22.95;39.56;96235.09;4988846;28;20431;-71
2023/06/05 09:19:27;;;;;;;16.37;7.17;;;;;;;22.58;39.27;96222.56;4988887;28;20527;-71
2023/06/05 09:21:54;;;;;;;7.97;6.63;;;;;;;22.44;39.75;96228.38;4988932;28;20428;-72
2023/06/05 09:24:21;;;;;;;11.10;7.03;;;;;;;22.70;39.56;96212.50;4988899;28;20410;-71
2023/06/05 09:26:58;;;;;;;6.50;5.50;;;;;;;22.92;38.57;96228.22;4989110;28;20420;-72
2023/06/05 09:29:41;;;;;;;8.10;6.47;;;;;;;23.20;37.94;96217.53;4988942;28;20440;-70
2023/06/05 09:32:20;;;;;;;14.40;6.80;;;;;;;23.47;37.16;96219.31;4988675;28;20408;-71
2023/06/05 09:34:53;;;;;;;7.80;6.23;;;;;;;23.47;36.20;96216.63;4984241;28;20448;-71
2023/06/05 09:37:33;;;;;;;6.27;5.57;;;;;;;23.34;35.60;96222.38;4980040;28;20451;-70
2023/06/05 09:39:59;;;;;;;10.17;6.10;;;;;;;23.11;36.29;96210.41;4988281;28;20408;-72
2023/06/05 09:42:32;;;;;;;8.00;5.90;;;;;;;23.23;36.11;96219.91;4989203;28;20435;-71
2023/06/05 09:45:00;;;;;;;11.50;7.23;;;;;;;23.33;36.25;96214.47;4990405;28;20350;-71
2023/06/05 09:47:25;;;;;;;8.00;7.20;;;;;;;23.76;36.15;96199.53;4989100;28;20453;-71
2023/06/05 09:49:51;;;;;;;7.00;5.70;;;;;;;23.91;35.44;96197.16;4996785;28;20546;-71
2023/06/05 09:52:16;;;;;;;8.97;6.93;;;;;;;24.05;34.34;96204.66;4990282;28;20188;-71
2023/06/05 09:54:47;;;;;;;17.30;6.70;;;;;;;23.93;34.71;96201.38;4976104;28;20201;-72
2023/06/05 09:57:14;;;;;;;9.07;6.30;;;;;;;23.43;34.37;96200.06;4988031;28;20584;-70
2023/06/05 09:59:53;;;;;;;7.57;6.10;;;;;;;23.59;35.04;96202.03;4988519;28;20431;-71
2023/06/05 10:02:22;;;;;;;10.00;6.30;;;;;;;23.88;35.09;96196.47;4988403;28;20408;-70
2023/06/05 10:04:51;;;;;;;14.90;6.17;;;;;;;24.19;34.33;96196.03;4988083;28;20694;-70
2023/06/05 10:07:17;;;;;;;11.80;6.10;;;;;;;24.28;32.88;96195.09;4987957;28;20412;-70
2023/06/05 10:09:44;;;;;;;10.57;5.70;;;;;;;24.25;33.38;96184.66;4987890;28;20538;-70
2023/06/05 10:12:10;;;;;;;10.40;5.90;;;;;;;24.24;33.72;96187.53;4986841;28;20187;-71
2023/06/05 10:14:36;;;;;;;7.70;5.93;;;;;;;24.07;32.87;96190.09;4987596;28;20784;-71
2023/06/05 10:17:02;;;;;;;5.73;4.73;;;;;;;24.11;31.73;96189.75;4987873;28;20416;-73
2023/06/05 10:19:29;;;;;;;8.20;5.67;;;;;;;23.81;31.10;96198.09;4988601;28;21084;-72
2023/06/05 10:21:55;;;;;;;6.80;5.30;;;;;;;23.82;30.55;96204.28;4987957;28;20443;-71
2023/06/05 10:24:29;;;;;;;41.13;9.30;;;;;;;24.37;30.27;96181.72;5018976;28;20948;-70
2023/06/05 10:27:21;;;;;;;7.00;5.73;;;;;;;24.27;30.32;96188.03;4987885;28;20359;-70
2023/06/05 10:30:21;;;;;;;12.37;6.07;;;;;;;23.95;30.99;96194.00;4988054;28;20467;-70
2023/06/05 10:33:48;;;;;;;12.50;5.80;;;;;;;24.34;31.12;96182.06;4990134;28;20451;-71
2023/06/05 10:36:26;;;;;;;9.37;5.00;;;;;;;24.45;28.86;96182.63;5005774;28;20415;-69
2023/06/05 10:38:52;;;;;;;7.00;5.13;;;;;;;24.27;29.25;96176.47;5003947;28;20445;-71
2023/06/05 10:41:18;;;;;;;8.07;5.30;;;;;;;23.96;29.91;96173.41;4992213;28;20440;-71
2023/06/05 10:43:49;;;;;;;8.80;5.27;;;;;;;23.68;31.83;96182.34;4987125;28;20424;-71
2023/06/05 10:46:26;;;;;;;6.97;5.73;;;;;;;23.69;32.63;96177.84;4987051;28;20462;-72
2023/06/05 10:49:15;;;;;;;6.90;6.03;;;;;;;23.92;32.68;96169.34;4987157;28;20462;-71
2023/06/05 10:51:48;;;;;;;7.93;4.87;;;;;;;24.63;30.63;96173.69;4977309;28;20436;-71
2023/06/05 10:54:22;;;;;;;7.83;5.63;;;;;;;24.56;31.11;96176.16;4978925;28;20431;-71
2023/06/05 10:56:58;;;;;;;7.97;5.47;;;;;;;24.21;30.96;96175.28;4985334;28;21407;-71
2023/06/05 10:59:26;;;;;;;8.53;5.33;;;;;;;24.09;30.74;96171.16;4979815;28;20458;-71
2023/06/05 11:04:47;;;;;;;8.47;6.70;;;;;;;23.91;31.61;96171.19;4985104;28;20804;-71
2023/06/05 11:07:20;;;;;;;8.53;5.10;;;;;;;23.94;31.97;96162.00;4985168;28;20432;-69
2023/06/05 11:10:22;;;;;;;8.23;5.80;;;;;;;23.81;31.24;96170.44;4985735;28;20478;-72
2023/06/05 11:12:50;;;;;;;10.23;4.93;;;;;;;23.98;31.75;96160.69;4983185;28;20422;-71
2023/06/05 11:15:22;;;;;;;12.63;6.00;;;;;;;24.40;31.13;96168.00;4986687;28;20478;-70
2023/06/05 11:17:47;;;;;;;13.10;5.70;;;;;;;24.42;30.19;96166.00;4986620;28;20431;-73
2023/06/05 11:20:26;;;;;;;6.07;5.20;;;;;;;23.91;30.42;96165.84;4986894;28;20784;-72
2023/06/05 11:22:55;;;;;;;8.30;5.50;;;;;;;24.25;30.13;96155.16;4986719;28;20184;-71
2023/06/05 11:25:21;;;;;;;8.33;5.60;;;;;;;24.42;29.51;96163.31;4986192;28;20412;-72
2023/06/05 11:27:49;;;;;;;6.37;5.60;;;;;;;23.92;29.40;96161.31;4986376;28;20420;-72
2023/06/05 11:30:16;;;;;;;15.30;6.57;;;;;;;23.84;30.28;96146.84;4986450;28;20208;-72
2023/06/05 11:32:43;;;;;;;7.40;5.00;;;;;;;23.76;30.87;96141.41;4986699;28;20773;-72
2023/06/05 11:35:09;;;;;;;9.13;5.27;;;;;;;24.12;29.82;96149.41;4985817;28;20498;-72